» Metar & Tafor

16 November 2020
METAR
Pukul : 05.00 UTC
Isi :

METAR WAGI 180500Z 16005KT 9999 FEW013CB BKN013 30/25 Q1009 RMK CB TO SE=


10 Juni 2019
TAFOR
Pukul : 06 - 18 UTC
Isi :

TAF WAGI 190500Z 1906/1918 10006KT 9000 SCT013=


Hal: << First | < Prev | 1 | Next > | Last >>